x

La Perouse Bank (46206) Wave Buoy

1:00am - Sat 2nd Aug 2014 All times are PDT. -7 hours from GMT.

  • Sig Wave height 4.9ft
  • Peak Period 7s
  • Wind
    9mph, 11mph gusts
  • Sea Temp 60°f
  • 空気 Temp 59°f
  • Sea Pressure 1015.2mb
  • La Perouse Bank
  • La Perouse Bank

More Historic Weather Station data

Upgrade to MSW Pro to gain access to the past 30 days of data for over 8000 Wavebouys and Weather Stations around the globe.

Join Pro

Comparision Forecast

View Surf forecast
   
Sat 08/02 1:00am 5ft 7s 9 11 mph 1015.2mb 60f 59f
12:00am 5ft 7s 11 13 mph 1015.5mb 59f 59f
Fri 08/01 11:00pm 5ft 7s 9 11 mph 1016.1mb 59f 59f
10:00pm 4.5ft 7s 11 13 mph 1016.3mb 60f 59f
9:00pm 4ft 7s 13 16 mph 1016.4mb 59f 59f
8:00pm 4ft 7s 13 16 mph 1016.4mb 59f 60f
7:00pm 3.5ft 6s 13 16 mph 1016.4mb 59f 60f
6:00pm 3.5ft 7s 13
mph
1016.7mb 60f 60f
5:00pm 3.5ft 6s 11 13 mph 1017.1mb 60f 61f
4:00pm 3.5ft 7s 11
mph
1017.6mb 62f 60f
3:00pm 3.5ft 6s 7 9 mph 1017.9mb 61f 60f
2:00pm 3.5ft 7s 2 4 mph 1018.2mb 63f 61f
1:00pm 3.5ft 6s  -  2 mph 1018.3mb 62f 59f
12:00pm 4ft 7s 2 4 mph 1018.6mb 60f 57f
11:00am 4ft 7s 7
mph
1018.6mb 60f 56f
10:00am 4ft 7s 4
mph
1018.6mb 59f 58f
9:00am 3.5ft 7s 4 7 mph 1018.7mb 59f 58f
8:00am 4ft 7s  -  2 mph 1018.6mb 58f 60f
7:00am 3.5ft 7s 4
mph
1018.3mb 58f 59f
6:00am 4ft 6s 9
mph
1017.8mb 58f 58f
5:00am 4.5ft 7s 7
mph
1017.8mb 58f 58f
4:00am 4ft 6s 9
mph
1017.9mb 58f 58f
3:00am 4ft 6s 11 13 mph 1017.8mb 58f 58f
2:00am 4ft 6s 11 13 mph 1018mb 58f 58f
1:00am 4ft 6s 13 16 mph 1018mb 58f 58f
12:00am 4ft 5s 18 22 mph 1018.3mb 59f 59f
Thu 07/31 11:00pm 4ft 5s 18 20 mph 1018.6mb 59f 59f
10:00pm 4ft 5s 18 22 mph 1019mb 59f 59f
9:00pm 4ft 5s 18 20 mph 1019.2mb 59f 59f
8:00pm 4ft 5s 18 22 mph 1019.1mb 59f 60f
7:00pm 3.5ft 5s 18 22 mph 1019.3mb 59f 60f
6:00pm 3.5ft 6s 18 20 mph 1019.9mb 59f 60f
5:00pm 3.5ft 5s 16 20 mph 1020.2mb 59f 60f
3:00pm 3ft 6s 16 18 mph 1021mb 59f 60f
2:00pm 2.5ft 14s 13 16 mph 1021.5mb 59f 59f
1:00pm 3ft 6s 11 13 mph 1021.6mb 58f 59f
12:00pm 3ft 6s 11 13 mph 1021.6mb 58f 59f
11:00am 3ft 6s 9 11 mph 1021.6mb 58f 59f
10:00am 3ft 6s 9 11 mph 1021.5mb 58f 59f
9:00am 3ft 5s 9 11 mph 1021.4mb 58f 59f
8:00am 3ft 6s 11 13 mph 1021.3mb 58f 59f
7:00am 3ft 6s 13
mph
1020.9mb 57f 58f
6:00am 3ft 6s 11 13 mph 1020.7mb 57f 59f
5:00am 3.5ft 14s 11 13 mph 1020.8mb 58f 58f
4:00am 3.5ft 5s 13 18 mph 1020.8mb 58f 59f
3:00am 3ft 5s 13 16 mph 1020.9mb 58f 59f
2:00am 3.5ft 6s 13 18 mph 1020.9mb 58f 59f
1:00am 3.5ft 6s 13 18 mph 1021.3mb 58f 59f
12:00am 3ft 5s 16 18 mph 1021.4mb 58f 59f
Wed 07/30 11:00pm 3.5ft 5s 16 18 mph 1021.5mb 58f 59f
10:00pm 3.5ft 4s 16 18 mph 1021.6mb 58f 59f
9:00pm 3.5ft 14s 16 18 mph 1021.8mb 58f 59f
8:00pm 4ft 7s 16 18 mph 1022.1mb 58f 59f
7:00pm 3.5ft 5s 16 20 mph 1022.1mb 58f 60f
6:00pm 3.5ft 5s 18 20 mph 1022.3mb 59f 60f
5:00pm 3.5ft 7s 18 20 mph 1022.5mb 58f 59f
4:00pm 3.5ft 14s 16 20 mph 1022.8mb 58f 59f
3:00pm 3.5ft 5s 16 18 mph 1022.9mb 58f 59f
2:00pm 3.5ft 7s 16 18 mph 1022.9mb 58f 59f
1:00pm 3.5ft 7s 16 18 mph 1023mb 58f 59f
12:00pm 3.5ft 5s 13 16 mph 1022.9mb 58f 59f
11:00am 3.5ft 5s 11 13 mph 1022.8mb 57f 58f
10:00am 3.5ft 6s 13 16 mph 1022.5mb 58f 58f
9:00am 4ft 6s 13 16 mph 1022.5mb 57f 58f
8:00am 4.5ft 6s 13 16 mph 1022.2mb 57f 58f
7:00am 4.5ft 6s 16 18 mph 1021.9mb 57f 58f
6:00am 4ft 6s 18 20 mph 1021.4mb 57f 59f
5:00am 4ft 5s 16 18 mph 1021.3mb 57f 59f
4:00am 4ft 5s 18 20 mph 1021.1mb 57f 59f
3:00am 4ft 7s 20 22 mph 1021mb 58f 59f
2:00am 4ft 5s 18 20 mph 1021mb 58f 59f
1:00am 4ft 5s 18 20 mph 1021.1mb 58f 59f
12:00am 4ft 4s 18 22 mph 1021mb 58f 60f
Tue 07/29 11:00pm 4ft 4s 20 22 mph 1020.8mb 58f 60f
10:00pm 4ft 8s 18 20 mph 1021.1mb 59f 60f
9:00pm 3.5ft 8s 18 22 mph 1021mb 59f 60f
8:00pm 3.5ft 7s 20 22 mph 1021.1mb 59f 60f
7:00pm 3.5ft 8s 16 20 mph 1021.3mb 59f 60f
6:00pm 3ft 8s 16 18 mph 1021.7mb 59f 61f
5:00pm 3ft 8s 13
mph
1022.1mb 59f 61f
4:00pm 3ft 8s 11 13 mph 1022.3mb 59f 60f
3:00pm 3ft 7s 11 13 mph 1022.5mb 59f 61f
2:00pm 3ft 7s 11 16 mph 1022.5mb 59f 61f
1:00pm 3ft 8s 9 11 mph 1022.7mb 59f 60f
12:00pm 3ft 7s 9
mph
1022.8mb 59f 60f
11:00am 3ft 8s 7
mph
1022.7mb 58f 59f
10:00am 3ft 8s 4 7 mph 1022.5mb 58f 59f